createdAt,value
2022-08-16T00:01:41.039Z,77.68
2022-08-16T00:04:13.755Z,77.80
2022-08-16T00:06:47.282Z,77.77
2022-08-16T00:09:19.514Z,77.86
2022-08-16T00:11:55.408Z,78.04
2022-08-16T00:14:31.013Z,78.13
2022-08-16T00:17:16.374Z,77.98
2022-08-16T00:19:54.969Z,77.30
2022-08-16T00:22:28.111Z,77.04
2022-08-16T00:25:00.727Z,77.15
2022-08-16T00:27:32.788Z,77.07
2022-08-16T00:30:19.096Z,77.03
2022-08-16T00:32:57.070Z,77.69
2022-08-16T00:35:34.991Z,77.59
2022-08-16T00:38:41.263Z,77.52
2022-08-16T00:41:02.572Z,77.76
2022-08-16T00:43:42.462Z,78.11
2022-08-16T00:46:34.641Z,78.02
2022-08-16T00:49:17.285Z,77.78
2022-08-16T00:51:53.006Z,77.55
2022-08-16T00:54:31.426Z,77.85
2022-08-16T00:57:06.243Z,77.89
2022-08-16T00:59:52.876Z,77.87
2022-08-16T01:02:33.050Z,77.92
2022-08-16T01:05:11.514Z,78.01
2022-08-16T01:07:51.739Z,77.86
2022-08-16T01:10:32.048Z,77.92
2022-08-16T01:13:12.057Z,77.90
2022-08-16T01:15:52.623Z,78.12
2022-08-16T01:18:40.412Z,78.00
2022-08-16T01:21:33.925Z,77.79
2022-08-16T01:24:44.543Z,77.88
2022-08-16T01:27:18.159Z,77.66
2022-08-16T01:29:59.554Z,77.48
2022-08-16T01:32:36.102Z,77.53
2022-08-16T01:35:17.739Z,77.61
2022-08-16T01:37:54.270Z,77.76
2022-08-16T01:40:32.100Z,78.02
2022-08-16T01:43:08.380Z,77.74
2022-08-16T01:45:42.108Z,77.61
2022-08-16T01:48:20.325Z,77.80
2022-08-16T01:51:08.126Z,77.44
2022-08-16T01:53:42.525Z,77.54
2022-08-16T01:56:32.835Z,77.21
2022-08-16T01:59:15.941Z,77.47
2022-08-16T02:01:56.247Z,77.58
2022-08-16T02:04:48.651Z,77.53
2022-08-16T02:07:23.951Z,77.39
2022-08-16T02:09:59.700Z,77.47
2022-08-16T02:12:51.171Z,77.42
2022-08-16T02:15:35.646Z,77.37
2022-08-16T02:18:18.764Z,77.47
2022-08-16T02:20:53.478Z,77.33
2022-08-16T02:23:26.760Z,77.28
2022-08-16T02:26:02.446Z,77.30
2022-08-16T02:28:35.450Z,77.26
2022-08-16T02:31:12.594Z,77.03
2022-08-16T02:33:50.770Z,77.22
2022-08-16T02:36:47.688Z,77.22
2022-08-16T02:39:23.416Z,77.60
2022-08-16T02:41:57.230Z,77.79
2022-08-16T02:44:31.652Z,77.75
2022-08-16T02:47:04.609Z,77.60
2022-08-16T02:50:30.594Z,77.48
2022-08-16T02:52:30.354Z,77.55
2022-08-16T02:55:11.525Z,77.48
2022-08-16T02:57:53.902Z,77.40
2022-08-16T03:00:33.621Z,77.70
2022-08-16T03:03:10.631Z,77.81
2022-08-16T03:05:42.156Z,78.25
2022-08-16T03:08:50.111Z,78.32
2022-08-16T03:11:17.970Z,78.46
2022-08-16T03:13:56.879Z,78.32
2022-08-16T03:16:38.450Z,78.01
2022-08-16T03:19:18.672Z,78.24
2022-08-16T03:21:51.794Z,78.51
2022-08-16T03:24:29.175Z,78.22
2022-08-16T03:27:04.145Z,78.32
2022-08-16T03:29:40.353Z,78.49
2022-08-16T03:32:27.778Z,78.70
2022-08-16T03:35:00.295Z,78.81
2022-08-16T03:37:32.555Z,78.91
2022-08-16T03:40:32.799Z,78.97
2022-08-16T03:43:20.436Z,78.77
2022-08-16T03:45:58.476Z,78.68
2022-08-16T03:48:40.529Z,78.72
2022-08-16T03:51:23.636Z,78.51
2022-08-16T03:54:01.768Z,79.05
2022-08-16T03:56:36.741Z,81.04
2022-08-16T03:59:10.675Z,80.06
2022-08-16T04:01:53.758Z,78.93
2022-08-16T04:04:33.525Z,77.15
2022-08-16T04:07:09.309Z,76.61
2022-08-16T04:09:46.823Z,76.54
2022-08-16T04:12:53.626Z,76.59
2022-08-16T04:15:17.539Z,76.51
2022-08-16T04:17:57.967Z,76.88
2022-08-16T04:20:36.812Z,77.11
2022-08-16T04:23:10.728Z,77.47
2022-08-16T04:25:47.047Z,77.89
2022-08-16T04:28:52.309Z,77.79
2022-08-16T04:31:17.000Z,77.83
2022-08-16T04:33:53.323Z,77.91
2022-08-16T04:36:28.519Z,77.98
2022-08-16T04:39:00.917Z,78.12
2022-08-16T04:41:37.507Z,77.97
2022-08-16T04:44:32.726Z,78.34
2022-08-16T04:47:21.438Z,78.29
2022-08-16T04:49:56.989Z,78.55
2022-08-16T04:52:33.444Z,78.91
2022-08-16T04:55:12.063Z,78.99
2022-08-16T04:57:46.186Z,79.12
2022-08-16T05:00:33.754Z,79.49
2022-08-16T05:03:24.890Z,79.78
2022-08-16T05:05:59.918Z,80.26
2022-08-16T05:08:39.481Z,79.93
2022-08-16T05:11:22.636Z,79.97
2022-08-16T05:13:55.825Z,79.72
2022-08-16T05:16:39.605Z,79.56
2022-08-16T05:19:19.071Z,79.56
2022-08-16T05:22:18.264Z,79.99
2022-08-16T05:24:54.966Z,80.51
2022-08-16T05:27:28.424Z,80.70
2022-08-16T05:30:34.060Z,80.16
2022-08-16T05:32:53.879Z,79.90
2022-08-16T05:35:27.574Z,79.46
2022-08-16T05:38:32.228Z,80.08
2022-08-16T05:41:06.851Z,80.80
2022-08-16T05:43:43.196Z,81.23
2022-08-16T05:46:29.433Z,80.68
2022-08-16T05:49:08.827Z,80.78
2022-08-16T05:51:47.931Z,80.34
2022-08-16T05:54:24.886Z,80.36
2022-08-16T05:56:59.819Z,79.75
2022-08-16T05:59:32.748Z,79.89
2022-08-16T06:02:06.273Z,79.63
2022-08-16T06:04:44.930Z,79.52
2022-08-16T06:07:26.173Z,79.98
2022-08-16T06:10:32.906Z,80.17
2022-08-16T06:13:09.260Z,80.81
2022-08-16T06:15:42.168Z,81.55
2022-08-16T06:18:14.824Z,81.84
2022-08-16T06:20:55.144Z,81.20
2022-08-16T06:23:27.821Z,79.30
2022-08-16T06:26:09.832Z,80.31
2022-08-16T06:28:47.945Z,80.76
2022-08-16T06:31:26.301Z,81.33
2022-08-16T06:34:00.839Z,80.71
2022-08-16T06:36:36.838Z,80.31
2022-08-16T06:39:17.603Z,80.76
2022-08-16T06:42:10.067Z,81.56
2022-08-16T06:45:01.912Z,81.96
2022-08-16T06:47:56.573Z,81.05
2022-08-16T06:50:32.794Z,79.16
2022-08-16T06:53:09.651Z,81.58
2022-08-16T06:55:46.844Z,80.49
2022-08-16T06:58:31.980Z,81.24
2022-08-16T07:01:15.016Z,80.95
2022-08-16T07:03:54.936Z,78.54
2022-08-16T07:06:32.539Z,79.08
2022-08-16T07:09:09.623Z,78.81
2022-08-16T07:11:45.756Z,78.96
2022-08-16T07:14:25.650Z,80.04
2022-08-16T07:17:01.507Z,80.63
2022-08-16T07:20:02.519Z,79.80
2022-08-16T07:22:38.047Z,78.71
2022-08-16T07:25:17.115Z,78.14
2022-08-16T07:27:49.731Z,78.00
2022-08-16T07:30:45.126Z,76.40
2022-08-16T07:33:52.205Z,75.93
2022-08-16T07:36:21.762Z,75.32
2022-08-16T07:38:54.547Z,75.57
2022-08-16T07:41:27.221Z,74.43
2022-08-16T07:44:03.837Z,73.49
2022-08-16T07:46:47.115Z,72.18
2022-08-16T07:49:32.551Z,71.71
2022-08-16T07:52:20.477Z,71.42
2022-08-16T07:54:54.066Z,69.73
2022-08-16T07:57:28.338Z,70.10
2022-08-16T08:00:00.981Z,70.98
2022-08-16T08:02:34.982Z,71.26
2022-08-16T08:05:09.227Z,70.56
2022-08-16T08:07:45.109Z,71.88
2022-08-16T08:10:29.187Z,71.46
2022-08-16T08:13:04.588Z,70.93
2022-08-16T08:15:40.514Z,70.09
2022-08-16T08:18:30.112Z,70.69
2022-08-16T08:21:04.917Z,70.01
2022-08-16T08:23:42.482Z,69.40
2022-08-16T08:26:17.683Z,68.95
2022-08-16T08:28:50.625Z,69.53
2022-08-16T08:31:22.951Z,68.98
2022-08-16T08:33:56.845Z,68.26
2022-08-16T08:36:33.268Z,67.44
2022-08-16T08:39:16.531Z,66.98
2022-08-16T08:41:53.559Z,67.06
2022-08-16T08:44:31.036Z,66.53
2022-08-16T08:47:12.747Z,66.24
2022-08-16T08:49:46.138Z,65.03
2022-08-16T08:52:35.194Z,64.63
2022-08-16T08:55:15.132Z,65.18
2022-08-16T08:57:49.033Z,65.87
2022-08-16T09:00:50.976Z,65.48
2022-08-16T09:03:24.424Z,64.85
2022-08-16T09:06:00.635Z,64.41
2022-08-16T09:08:35.144Z,64.71
2022-08-16T09:11:11.765Z,64.68
2022-08-16T09:13:51.294Z,63.87
2022-08-16T09:17:03.338Z,64.32
2022-08-16T09:19:18.501Z,64.19
2022-08-16T09:22:06.030Z,61.04
2022-08-16T09:24:58.164Z,61.86
2022-08-16T09:27:56.621Z,61.89
2022-08-16T09:30:43.059Z,60.86
2022-08-16T09:33:19.627Z,60.54
2022-08-16T09:35:54.486Z,59.30
2022-08-16T09:38:31.857Z,59.18
2022-08-16T09:41:14.671Z,59.44
2022-08-16T09:43:59.470Z,58.84
2022-08-16T09:46:48.472Z,59.25
2022-08-16T09:49:22.693Z,58.74
2022-08-16T09:51:55.614Z,58.66
2022-08-16T09:54:32.453Z,56.93
2022-08-16T09:57:06.191Z,56.66
2022-08-16T09:59:44.660Z,56.96
2022-08-16T10:02:27.101Z,57.42
2022-08-16T10:05:01.262Z,57.76
2022-08-16T10:07:44.682Z,56.44
2022-08-16T10:10:19.051Z,55.08
2022-08-16T10:13:14.429Z,53.56
2022-08-16T10:15:55.703Z,53.46
2022-08-16T10:19:01.958Z,53.73
2022-08-16T10:21:22.699Z,53.83
2022-08-16T10:23:56.048Z,54.54
2022-08-16T10:27:21.946Z,54.94
2022-08-16T10:29:22.076Z,54.27
2022-08-16T10:31:54.316Z,54.90
2022-08-16T10:34:32.321Z,55.09
2022-08-16T10:37:05.874Z,53.25
2022-08-16T10:39:41.412Z,53.48
2022-08-16T10:42:14.713Z,52.57
2022-08-16T10:44:53.636Z,50.52
2022-08-16T10:47:28.183Z,52.06
2022-08-16T10:50:05.436Z,51.27
2022-08-16T10:52:44.838Z,50.25
2022-08-16T10:55:40.785Z,48.59
2022-08-16T10:58:17.412Z,49.19
2022-08-16T11:00:53.104Z,48.20
2022-08-16T11:03:45.620Z,49.84
2022-08-16T11:06:18.479Z,50.50
2022-08-16T11:14:38.388Z,48.55
2022-08-16T11:17:13.608Z,48.84
2022-08-16T11:20:41.087Z,49.20
2022-08-16T11:22:48.347Z,48.02
2022-08-16T11:29:11.894Z,47.35
2022-08-16T11:31:08.830Z,46.98
2022-08-16T11:33:56.338Z,47.57
2022-08-16T11:36:29.408Z,48.50
2022-08-16T11:39:03.675Z,48.85
2022-08-16T11:41:38.516Z,48.51
2022-08-16T11:44:20.418Z,47.51
2022-08-16T11:47:09.744Z,47.02
2022-08-16T11:49:41.970Z,48.39
2022-08-16T11:52:14.194Z,47.54
2022-08-16T11:54:53.726Z,47.66
2022-08-16T11:57:29.105Z,47.12
2022-08-16T12:00:01.433Z,46.42
2022-08-16T12:02:45.948Z,45.48
2022-08-16T12:05:20.324Z,45.35
2022-08-16T12:07:52.458Z,45.05
2022-08-16T12:10:28.212Z,45.84
2022-08-16T12:13:02.736Z,44.71
2022-08-16T12:15:35.742Z,45.49
2022-08-16T12:18:08.896Z,44.76
2022-08-16T12:20:43.340Z,44.31
2022-08-16T12:23:17.920Z,44.55
2022-08-16T12:25:50.987Z,44.97
2022-08-16T12:28:36.920Z,45.67
2022-08-16T12:31:16.546Z,44.56
2022-08-16T12:33:50.792Z,44.85
2022-08-16T12:36:29.776Z,44.73
2022-08-16T12:39:02.973Z,43.92
2022-08-16T12:41:37.657Z,44.03
2022-08-16T12:44:19.900Z,43.37
2022-08-16T12:47:06.124Z,43.36
2022-08-16T12:49:42.252Z,42.83
2022-08-16T12:52:32.990Z,42.60
2022-08-16T12:55:11.489Z,43.35
2022-08-16T12:57:58.099Z,43.82
2022-08-16T13:00:33.943Z,44.16
2022-08-16T13:03:07.938Z,44.04
2022-08-16T13:05:47.775Z,43.75
2022-08-16T13:08:30.916Z,43.29
2022-08-16T13:11:07.824Z,43.61
2022-08-16T13:13:40.418Z,43.30
2022-08-16T13:16:20.213Z,43.34
2022-08-16T13:18:54.439Z,42.74
2022-08-16T13:21:26.993Z,42.77
2022-08-16T13:23:59.307Z,42.47
2022-08-16T13:26:36.146Z,42.23
2022-08-16T13:29:09.788Z,42.33
2022-08-16T13:31:42.390Z,41.81
2022-08-16T13:34:17.782Z,42.04
2022-08-16T13:36:52.079Z,42.24
2022-08-16T13:39:27.011Z,42.08
2022-08-16T13:42:04.423Z,41.86
2022-08-16T13:44:56.030Z,41.96
2022-08-16T13:47:30.155Z,40.86
2022-08-16T13:50:02.946Z,41.11
2022-08-16T13:52:39.889Z,41.18
2022-08-16T13:55:17.492Z,40.50
2022-08-16T13:58:35.024Z,40.67
2022-08-16T14:00:43.082Z,42.14
2022-08-16T14:03:18.367Z,41.69
2022-08-16T14:05:52.654Z,41.18
2022-08-16T14:08:27.441Z,40.67
2022-08-16T14:10:59.710Z,39.68
2022-08-16T14:13:32.397Z,40.16
2022-08-16T14:16:05.420Z,40.32
2022-08-16T14:18:44.775Z,41.62
2022-08-16T14:21:18.345Z,39.58
2022-08-16T14:23:52.037Z,39.15
2022-08-16T14:26:24.881Z,39.89
2022-08-16T14:29:01.238Z,38.95
2022-08-16T14:31:39.671Z,39.58
2022-08-16T14:34:13.143Z,40.20
2022-08-16T14:36:52.104Z,39.18
2022-08-16T14:39:26.049Z,39.33
2022-08-16T14:42:03.516Z,39.84
2022-08-16T14:44:36.191Z,39.18
2022-08-16T14:47:11.116Z,39.85
2022-08-16T14:49:44.323Z,38.78
2022-08-16T14:52:27.637Z,39.59
2022-08-16T14:55:12.538Z,39.97
2022-08-16T14:57:45.156Z,38.75
2022-08-16T15:00:19.158Z,38.82
2022-08-16T15:02:55.543Z,40.04
2022-08-16T15:05:32.609Z,41.19
2022-08-16T15:08:05.262Z,40.43
2022-08-16T15:10:39.005Z,40.24
2022-08-16T15:13:16.353Z,40.22
2022-08-16T15:15:59.007Z,40.68
2022-08-16T15:18:35.147Z,41.46
2022-08-16T15:21:08.541Z,43.08
2022-08-16T15:23:41.372Z,42.05
2022-08-16T15:26:29.562Z,42.85
2022-08-16T15:29:05.919Z,41.35
2022-08-16T15:31:41.741Z,41.68
2022-08-16T15:34:21.946Z,41.94
2022-08-16T15:36:58.441Z,41.72
2022-08-16T15:39:39.315Z,43.06
2022-08-16T15:42:27.028Z,41.55
2022-08-16T15:45:00.288Z,41.92
2022-08-16T15:47:33.974Z,41.78
2022-08-16T15:50:06.047Z,41.61
2022-08-16T15:52:40.008Z,42.66
2022-08-16T15:55:23.683Z,43.10
2022-08-16T15:58:34.435Z,42.61
2022-08-16T16:00:54.860Z,42.35
2022-08-16T16:03:29.585Z,42.08
2022-08-16T16:06:09.022Z,42.78
2022-08-16T16:08:42.080Z,43.14
2022-08-16T16:11:14.566Z,42.84
2022-08-16T16:13:47.115Z,42.80
2022-08-16T16:16:24.229Z,42.32
2022-08-16T16:18:56.812Z,42.13
2022-08-16T16:21:29.028Z,42.17
2022-08-16T16:24:21.475Z,42.39
2022-08-16T16:26:54.305Z,42.86
2022-08-16T16:29:28.531Z,42.97
2022-08-16T16:32:10.767Z,41.56
2022-08-16T16:34:45.310Z,41.56
2022-08-16T16:37:17.611Z,42.14
2022-08-16T16:39:50.065Z,43.70
2022-08-16T16:42:29.641Z,42.08
2022-08-16T16:45:04.943Z,42.35
2022-08-16T16:47:48.264Z,42.40
2022-08-16T16:50:22.507Z,40.99
2022-08-16T16:52:56.347Z,40.91
2022-08-16T16:55:30.486Z,40.81
2022-08-16T16:58:35.287Z,41.49
2022-08-16T17:01:09.569Z,41.26
2022-08-16T17:03:42.512Z,43.12
2022-08-16T17:06:14.891Z,43.47
2022-08-16T17:08:48.346Z,42.22
2022-08-16T17:11:25.551Z,41.91
2022-08-16T17:14:02.225Z,42.61
2022-08-16T17:16:34.990Z,43.57
2022-08-16T17:19:16.453Z,44.55
2022-08-16T17:22:00.987Z,45.43
2022-08-16T17:24:44.701Z,46.89
2022-08-16T17:27:18.378Z,47.71
2022-08-16T17:29:56.498Z,48.44
2022-08-16T17:32:34.163Z,49.13
2022-08-16T17:35:22.858Z,49.57
2022-08-16T17:37:55.960Z,49.94
2022-08-16T17:40:40.978Z,49.98
2022-08-16T17:43:27.552Z,50.22
2022-08-16T17:46:00.351Z,52.88
2022-08-16T17:48:35.706Z,51.64
2022-08-16T17:51:08.834Z,50.55
2022-08-16T17:53:41.295Z,51.50
2022-08-16T17:56:13.596Z,51.82
2022-08-16T17:58:45.899Z,51.42
2022-08-16T18:01:21.325Z,51.16
2022-08-16T18:04:08.915Z,52.10
2022-08-16T18:06:42.914Z,53.65
2022-08-16T18:09:15.361Z,53.38
2022-08-16T18:11:49.172Z,53.48
2022-08-16T18:14:52.273Z,53.31
2022-08-16T18:17:14.173Z,54.08
2022-08-16T18:19:46.787Z,53.42
2022-08-16T18:22:30.218Z,53.10
2022-08-16T18:25:03.178Z,53.15
2022-08-16T18:27:36.607Z,53.41
2022-08-16T18:30:12.065Z,54.65
2022-08-16T18:32:51.961Z,55.69
2022-08-16T18:35:24.397Z,56.34
2022-08-16T18:37:56.907Z,57.23
2022-08-16T18:40:29.886Z,58.18
2022-08-16T18:43:04.776Z,58.02
2022-08-16T18:45:40.346Z,58.76
2022-08-16T18:48:13.434Z,58.89
2022-08-16T18:51:03.930Z,59.02
2022-08-16T18:53:38.550Z,58.22
2022-08-16T18:56:10.922Z,58.38
2022-08-16T18:58:43.024Z,58.34
2022-08-16T19:01:15.608Z,58.08
2022-08-16T19:03:48.198Z,58.77
2022-08-16T19:06:20.465Z,58.98
2022-08-16T19:08:52.922Z,59.18
2022-08-16T19:11:28.682Z,59.41
2022-08-16T19:14:03.179Z,59.88
2022-08-16T19:16:36.026Z,61.47
2022-08-16T19:19:11.422Z,62.37
2022-08-16T19:21:45.157Z,62.89
2022-08-16T19:24:17.810Z,63.21
2022-08-16T19:26:51.362Z,63.01
2022-08-16T19:29:25.392Z,62.89
2022-08-16T19:31:59.918Z,62.54
2022-08-16T19:34:31.909Z,62.51
2022-08-16T19:37:04.957Z,62.12
2022-08-16T19:39:39.525Z,62.21
2022-08-16T19:42:18.216Z,62.46
2022-08-16T19:44:52.647Z,62.80
2022-08-16T19:47:25.303Z,62.82
2022-08-16T19:49:57.965Z,62.71
2022-08-16T19:52:32.105Z,62.52
2022-08-16T19:55:07.023Z,62.67
2022-08-16T19:57:40.396Z,62.66
2022-08-16T20:00:17.321Z,62.53
2022-08-16T20:02:54.106Z,62.55
2022-08-16T20:05:30.099Z,62.89
2022-08-16T20:08:04.586Z,62.36
2022-08-16T20:10:37.568Z,61.76
2022-08-16T20:13:14.472Z,61.56
2022-08-16T20:15:47.774Z,61.01
2022-08-16T20:18:25.236Z,60.88
2022-08-16T20:20:57.909Z,60.56
2022-08-16T20:23:30.823Z,60.31
2022-08-16T20:26:03.431Z,60.73
2022-08-16T20:28:40.729Z,60.88
2022-08-16T20:31:26.489Z,60.75
2022-08-16T20:33:58.749Z,60.95
2022-08-16T20:36:31.122Z,61.04
2022-08-16T20:39:05.019Z,61.22
2022-08-16T20:41:37.587Z,61.18
2022-08-16T20:44:10.843Z,61.58
2022-08-16T20:46:43.090Z,60.86
2022-08-16T20:49:15.523Z,61.78
2022-08-16T20:51:51.719Z,60.92
2022-08-16T20:54:26.452Z,61.28
2022-08-16T20:56:58.862Z,61.37
2022-08-16T20:59:31.227Z,61.98
2022-08-16T21:02:03.805Z,62.63
2022-08-16T21:04:36.437Z,62.48
2022-08-16T21:07:09.278Z,62.59
2022-08-16T21:09:41.978Z,63.11
2022-08-16T21:12:18.011Z,63.12
2022-08-16T21:14:50.922Z,63.01
2022-08-16T21:17:23.259Z,62.81
2022-08-16T21:19:55.385Z,62.82
2022-08-16T21:22:27.576Z,63.20
2022-08-16T21:25:00.240Z,63.27
2022-08-16T21:27:33.002Z,63.45
2022-08-16T21:30:12.570Z,62.74
2022-08-16T21:32:49.034Z,63.05
2022-08-16T21:35:21.835Z,63.22
2022-08-16T21:38:01.013Z,63.46
2022-08-16T21:40:49.892Z,63.60
2022-08-16T21:43:25.542Z,63.82
2022-08-16T21:45:57.683Z,63.76
2022-08-16T21:48:35.106Z,63.77
2022-08-16T21:51:10.489Z,63.79
2022-08-16T21:53:43.549Z,63.96
2022-08-16T21:56:17.091Z,64.33
2022-08-16T21:58:52.716Z,64.45
2022-08-16T22:01:26.579Z,64.49
2022-08-16T22:04:36.049Z,64.59
2022-08-16T22:06:50.770Z,64.78
2022-08-16T22:09:24.382Z,65.12
2022-08-16T22:11:56.626Z,65.15
2022-08-16T22:14:28.693Z,65.27
2022-08-16T22:17:00.892Z,65.34
2022-08-16T22:19:34.056Z,65.35
2022-08-16T22:22:06.719Z,65.50
2022-08-16T22:24:39.102Z,65.75
2022-08-16T22:27:11.778Z,65.98
2022-08-16T22:29:44.300Z,66.25
2022-08-16T22:32:17.644Z,66.07
2022-08-16T22:34:49.642Z,65.96
2022-08-16T22:37:21.665Z,66.20
2022-08-16T22:39:54.238Z,66.29
2022-08-16T22:42:30.051Z,66.55
2022-08-16T22:45:07.296Z,66.62
2022-08-16T22:47:39.524Z,66.92
2022-08-16T22:50:15.356Z,66.85
2022-08-16T22:52:56.289Z,67.01
2022-08-16T22:55:31.826Z,66.96
2022-08-16T22:58:05.261Z,66.98
2022-08-16T23:00:39.360Z,67.20
2022-08-16T23:03:13.976Z,67.25
2022-08-16T23:05:49.348Z,67.39
2022-08-16T23:08:32.225Z,67.30
2022-08-16T23:11:13.344Z,67.47
2022-08-16T23:13:49.764Z,67.29
2022-08-16T23:16:32.182Z,67.13
2022-08-16T23:19:08.318Z,67.18
2022-08-16T23:21:44.307Z,67.40
2022-08-16T23:24:19.413Z,67.52
2022-08-16T23:26:51.886Z,67.67
2022-08-16T23:29:26.464Z,67.98
2022-08-16T23:31:58.622Z,68.23
2022-08-16T23:34:31.296Z,68.12
2022-08-16T23:37:03.338Z,68.16
2022-08-16T23:39:35.993Z,68.02
2022-08-16T23:42:52.992Z,68.26
2022-08-16T23:45:09.700Z,68.31
2022-08-16T23:47:41.759Z,68.26
2022-08-16T23:50:13.857Z,68.45
2022-08-16T23:52:59.529Z,68.48
2022-08-16T23:55:33.913Z,68.75
2022-08-16T23:58:06.433Z,68.56
